Time;durP1;ratioP1;P1;durP2;ratioP2;P2;SDS_P1;SDS_P2;PMS_P1;PMS_P2;Temp;Humidity;BMP_temperature;BMP_pressure;BME280_temperature;BME280_humidity;BME280_pressure;Samples;Min_cycle;Max_cycle;Signal;HPM_P1;HPM_P2
2021/05/14 00:01:03;;;;;;;9.80;8.80;;;8.90;99.90;;;;;;5057310;28;20123;-66
2021/05/14 00:03:28;;;;;;;9.40;8.45;;;8.90;99.90;;;;;;5059158;28;20548;-66
2021/05/14 00:05:54;;;;;;;9.38;8.48;;;8.90;99.90;;;;;;5056306;28;20044;-66
2021/05/14 00:08:20;;;;;;;10.10;8.55;;;8.90;99.90;;;;;;5060829;28;20040;-66
2021/05/14 00:10:46;;;;;;;8.63;7.90;;;8.90;99.90;;;;;;5059969;28;20047;-66
2021/05/14 00:13:12;;;;;;;8.57;7.88;;;8.90;99.90;;;;;;5060230;28;20048;-66
2021/05/14 00:15:38;;;;;;;8.52;7.72;;;8.80;99.90;;;;;;5057469;28;20040;-66
2021/05/14 00:18:04;;;;;;;9.02;8.05;;;8.80;99.90;;;;;;5052567;28;20487;-66
2021/05/14 00:20:30;;;;;;;7.50;6.80;;;8.80;99.90;;;;;;5059960;28;20033;-66
2021/05/14 00:22:56;;;;;;;9.57;8.68;;;8.70;99.90;;;;;;5057656;28;20039;-66
2021/05/14 00:25:22;;;;;;;8.48;7.38;;;8.80;99.90;;;;;;5054092;28;20047;-66
2021/05/14 00:27:48;;;;;;;8.50;7.80;;;8.70;99.90;;;;;;5059223;28;20046;-66
2021/05/14 00:30:14;;;;;;;9.23;8.18;;;8.70;99.90;;;;;;5054423;28;20037;-66
2021/05/14 00:32:40;;;;;;;10.23;9.23;;;8.60;99.90;;;;;;5056597;28;20037;-66
2021/05/14 00:35:07;;;;;;;8.77;8.07;;;8.60;99.90;;;;;;5057974;28;20048;-66
2021/05/14 00:37:34;;;;;;;8.88;7.93;;;8.60;99.90;;;;;;5062679;28;20035;-66
2021/05/14 00:40:00;;;;;;;9.68;8.38;;;8.60;99.90;;;;;;5058331;28;20044;-66
2021/05/14 00:42:26;;;;;;;9.73;8.75;;;8.70;99.90;;;;;;5059606;28;20045;-66
2021/05/14 00:44:52;;;;;;;9.98;9.07;;;8.70;99.90;;;;;;5056525;28;20105;-66
2021/05/14 00:47:19;;;;;;;8.80;8.00;;;8.70;99.90;;;;;;5055597;28;20040;-66
2021/05/14 00:49:45;;;;;;;9.13;8.23;;;8.70;99.90;;;;;;5059203;28;20099;-66
2021/05/14 00:52:18;;;;;;;8.10;7.30;;;8.80;99.90;;;;;;5058245;28;20033;-66
2021/05/14 00:54:45;;;;;;;7.95;7.28;;;8.70;99.90;;;;;;5055695;28;20043;-66
2021/05/14 00:57:13;;;;;;;7.78;6.97;;;8.70;99.90;;;;;;5058757;28;20036;-66
2021/05/14 00:59:39;;;;;;;7.35;6.00;;;8.80;99.90;;;;;;5060654;28;20040;-66
2021/05/14 01:02:07;;;;;;;7.85;6.40;;;8.70;99.90;;;;;;5055153;28;20086;-66
2021/05/14 01:04:38;;;;;;;7.45;6.65;;;8.70;99.90;;;;;;5055870;28;20048;-66
2021/05/14 01:07:05;;;;;;;7.63;6.97;;;8.70;99.90;;;;;;5056400;28;20040;-66
2021/05/14 01:09:32;;;;;;;8.60;7.72;;;8.70;99.90;;;;;;5058227;28;20068;-66
2021/05/14 01:11:58;;;;;;;7.20;6.70;;;8.70;99.90;;;;;;5058683;28;20120;-66
2021/05/14 01:14:24;;;;;;;8.70;7.90;;;8.70;99.90;;;;;;5057915;28;20045;-66
2021/05/14 01:16:49;;;;;;;8.57;7.68;;;8.70;99.90;;;;;;5059333;28;20044;-66
2021/05/14 01:19:15;;;;;;;9.75;8.75;;;8.70;99.90;;;;;;5057669;28;20531;-66
2021/05/14 01:21:41;;;;;;;9.77;8.88;;;8.70;99.90;;;;;;5057782;28;20048;-66
2021/05/14 01:24:08;;;;;;;8.50;7.63;;;8.70;99.90;;;;;;5055329;28;20086;-66
2021/05/14 01:26:34;;;;;;;9.75;8.90;;;8.80;99.90;;;;;;5056390;28;20051;-66
2021/05/14 01:29:01;;;;;;;13.27;9.63;;;8.80;99.90;;;;;;5059945;28;20040;-66
2021/05/14 01:31:27;;;;;;;12.20;11.00;;;8.80;99.90;;;;;;5057338;28;20124;-66
2021/05/14 01:33:53;;;;;;;10.73;9.50;;;8.80;99.90;;;;;;5056751;28;20126;-66
2021/05/14 01:36:19;;;;;;;10.40;9.40;;;8.80;99.90;;;;;;5053214;28;20118;-66
2021/05/14 01:38:45;;;;;;;10.57;9.57;;;8.80;99.90;;;;;;5053711;28;20129;-66
2021/05/14 01:41:11;;;;;;;10.48;9.57;;;8.80;99.90;;;;;;5057943;28;20045;-66
2021/05/14 01:43:38;;;;;;;12.27;11.00;;;8.70;99.90;;;;;;5056569;28;20771;-66
2021/05/14 01:46:07;;;;;;;11.05;9.80;;;8.70;99.90;;;;;;5055245;28;20052;-66
2021/05/14 01:48:33;;;;;;;10.32;9.45;;;8.70;99.90;;;;;;5054846;28;21027;-66
2021/05/14 01:51:16;;;;;;;11.50;10.57;;;8.80;99.90;;;;;;5058774;28;20518;-66
2021/05/14 01:53:42;;;;;;;11.38;10.38;;;8.70;99.90;;;;;;5052999;28;20037;-65
2021/05/14 01:56:07;;;;;;;10.13;9.20;;;8.70;99.90;;;;;;5058369;28;20076;-66
2021/05/14 01:58:33;;;;;;;11.73;10.63;;;8.70;99.90;;;;;;5057225;28;20094;-66
2021/05/14 02:00:59;;;;;;;11.40;10.30;;;8.60;99.90;;;;;;5055256;28;20140;-65
2021/05/14 02:03:24;;;;;;;11.88;10.80;;;8.60;99.90;;;;;;5054255;28;20112;-66
2021/05/14 02:05:50;;;;;;;11.15;10.15;;;8.50;99.90;;;;;;5056921;28;20072;-66
2021/05/14 02:08:16;;;;;;;11.85;10.85;;;8.50;99.90;;;;;;5059252;28;20542;-66
2021/05/14 02:10:42;;;;;;;12.65;11.50;;;8.50;99.90;;;;;;5059561;28;20032;-66
2021/05/14 02:13:08;;;;;;;12.82;11.65;;;8.50;99.90;;;;;;5057501;28;20044;-66
2021/05/14 02:15:33;;;;;;;12.77;11.57;;;8.50;99.90;;;;;;5064545;28;20624;-66
2021/05/14 02:17:59;;;;;;;14.02;12.60;;;8.60;99.90;;;;;;5056635;28;20402;-66
2021/05/14 02:20:27;;;;;;;13.13;11.18;;;8.60;99.90;;;;;;5060240;28;20051;-66
2021/05/14 02:22:53;;;;;;;11.93;10.77;;;8.60;99.90;;;;;;5059361;28;20939;-66
2021/05/14 02:25:18;;;;;;;11.77;10.77;;;8.60;99.90;;;;;;5069299;28;20082;-66
2021/05/14 02:27:44;;;;;;;13.68;11.48;;;8.50;99.90;;;;;;5068919;28;20067;-66
2021/05/14 02:30:11;;;;;;;12.98;11.55;;;8.50;99.90;;;;;;5065804;28;20035;-66
2021/05/14 02:32:37;;;;;;;13.48;12.18;;;8.50;99.90;;;;;;5067342;28;20036;-66
2021/05/14 02:35:03;;;;;;;12.50;11.30;;;8.50;99.90;;;;;;5071285;28;20417;-66
2021/05/14 02:37:29;;;;;;;13.55;12.05;;;8.50;99.90;;;;;;5068799;28;20055;-66
2021/05/14 02:39:55;;;;;;;15.02;13.63;;;8.60;99.90;;;;;;5074214;28;20048;-66
2021/05/14 02:42:21;;;;;;;13.65;12.27;;;8.60;99.90;;;;;;5068621;28;20103;-66
2021/05/14 02:44:47;;;;;;;15.05;13.65;;;8.60;99.90;;;;;;5067425;28;20061;-66
2021/05/14 02:47:14;;;;;;;13.98;12.68;;;8.70;99.90;;;;;;5064635;28;20127;-66
2021/05/14 02:49:40;;;;;;;15.85;14.55;;;8.60;99.90;;;;;;5070054;28;20399;-66
2021/05/14 02:52:06;;;;;;;15.57;14.10;;;8.70;99.90;;;;;;5066872;28;20037;-66
2021/05/14 02:54:33;;;;;;;16.38;14.73;;;8.70;99.90;;;;;;5063262;28;20436;-66
2021/05/14 02:56:59;;;;;;;15.13;13.85;;;8.60;99.90;;;;;;5068107;28;20043;-66
2021/05/14 02:59:26;;;;;;;14.85;13.45;;;8.60;99.90;;;;;;5068668;28;20044;-66
2021/05/14 03:01:51;;;;;;;16.20;14.73;;;8.60;99.90;;;;;;5070721;28;20132;-66
2021/05/14 03:04:18;;;;;;;16.77;15.10;;;8.60;99.90;;;;;;5067699;28;20115;-66
2021/05/14 03:06:43;;;;;;;13.18;11.93;;;8.60;99.90;;;;;;5065889;28;20173;-66
2021/05/14 03:09:09;;;;;;;14.45;13.05;;;8.60;99.90;;;;;;5066347;28;20817;-66
2021/05/14 03:11:35;;;;;;;14.52;13.18;;;8.60;99.90;;;;;;5070990;28;20039;-66
2021/05/14 03:14:03;;;;;;;13.65;12.40;;;8.60;99.90;;;;;;5073872;28;20056;-66
2021/05/14 03:16:30;;;;;;;13.48;12.27;;;8.60;99.90;;;;;;5063498;28;20117;-66
2021/05/14 03:18:56;;;;;;;12.30;11.07;;;8.60;99.90;;;;;;5069284;28;20115;-66
2021/05/14 03:21:21;;;;;;;13.02;11.75;;;8.60;99.90;;;;;;5069673;28;20049;-66
2021/05/14 03:23:47;;;;;;;12.55;11.35;;;8.60;99.90;;;;;;5062828;28;20694;-66
2021/05/14 03:26:12;;;;;;;10.65;9.75;;;8.60;99.90;;;;;;5061358;28;20037;-66
2021/05/14 03:28:39;;;;;;;11.48;10.38;;;8.60;99.90;;;;;;5059868;28;20047;-66
2021/05/14 03:31:04;;;;;;;11.50;10.50;;;8.60;99.90;;;;;;5061103;28;20394;-66
2021/05/14 03:33:30;;;;;;;12.25;11.05;;;8.70;99.90;;;;;;5058806;28;20040;-66
2021/05/14 03:35:56;;;;;;;11.23;10.05;;;8.70;99.90;;;;;;5060789;28;20044;-66
2021/05/14 03:38:28;;;;;;;11.85;10.82;;;8.80;99.90;;;;;;5057302;28;20045;-66
2021/05/14 03:40:54;;;;;;;11.13;10.13;;;8.80;99.90;;;;;;5059470;28;20059;-66
2021/05/14 03:43:20;;;;;;;10.38;9.48;;;8.80;99.90;;;;;;5062210;28;20079;-66
2021/05/14 03:45:47;;;;;;;10.20;9.05;;;8.70;99.90;;;;;;5062902;28;20051;-65
2021/05/14 03:48:20;;;;;;;9.35;8.45;;;8.70;99.90;;;;;;5056623;28;20498;-66
2021/05/14 03:50:50;;;;;;;10.18;7.40;;;8.70;99.90;;;;;;5057296;28;20040;-66
2021/05/14 03:53:17;;;;;;;8.73;6.53;;;8.80;99.90;;;;;;5055894;28;20036;-66
2021/05/14 03:55:44;;;;;;;6.93;6.13;;;8.80;99.90;;;;;;5055564;28;20036;-66
2021/05/14 03:58:10;;;;;;;8.48;5.90;;;8.80;99.90;;;;;;5060008;28;20047;-66
2021/05/14 04:00:35;;;;;;;6.63;5.68;;;8.80;99.90;;;;;;5057707;28;20525;-66
2021/05/14 04:03:01;;;;;;;6.45;5.72;;;8.90;99.90;;;;;;5057906;28;20036;-66
2021/05/14 04:05:27;;;;;;;11.18;6.43;;;8.90;99.90;;;;;;5058958;28;20152;-66
2021/05/14 04:07:54;;;;;;;9.40;7.00;;;8.90;99.90;;;;;;5054529;28;20045;-66
2021/05/14 04:15:38;;;;;;;7.32;6.63;;;9.00;99.90;;;;;;5065121;28;20474;-66
2021/05/14 04:18:04;;;;;;;9.15;6.65;;;9.10;99.90;;;;;;5064508;28;20040;-66
2021/05/14 04:20:30;;;;;;;9.02;6.97;;;9.10;99.90;;;;;;5063525;28;20029;-66
2021/05/14 04:22:56;;;;;;;7.15;6.20;;;9.20;99.90;;;;;;5060519;28;20078;-66
2021/05/14 04:25:22;;;;;;;9.32;6.60;;;9.20;99.90;;;;;;5061725;28;20392;-66
2021/05/14 04:27:48;;;;;;;8.10;6.90;;;9.20;99.90;;;;;;5064218;28;20051;-66
2021/05/14 04:30:14;;;;;;;7.93;6.85;;;9.20;99.90;;;;;;5061144;28;20044;-66
2021/05/14 04:32:40;;;;;;;9.15;7.38;;;9.20;99.90;;;;;;5063663;28;20039;-66
2021/05/14 04:35:06;;;;;;;10.60;6.53;;;9.30;99.90;;;;;;5060593;28;20041;-66
2021/05/14 04:37:32;;;;;;;8.77;7.20;;;9.30;99.90;;;;;;5063587;28;20094;-66
2021/05/14 04:39:57;;;;;;;11.45;6.90;;;9.30;99.90;;;;;;5062017;28;20463;-66
2021/05/14 04:42:23;;;;;;;10.85;7.20;;;9.30;99.90;;;;;;5064834;28;20628;-66
2021/05/14 04:44:49;;;;;;;9.10;6.43;;;9.30;99.90;;;;;;5063929;28;20089;-66
2021/05/14 04:47:16;;;;;;;9.32;6.45;;;9.20;99.90;;;;;;5060815;28;20097;-66
2021/05/14 04:49:41;;;;;;;12.45;6.72;;;9.20;99.90;;;;;;5060359;28;20033;-66
2021/05/14 04:52:19;;;;;;;8.85;6.30;;;9.20;99.90;;;;;;5060782;28;20412;-66
2021/05/14 04:54:46;;;;;;;10.07;5.93;;;9.20;99.90;;;;;;5058901;28;20072;-66
2021/05/14 04:57:13;;;;;;;10.15;6.68;;;9.20;99.90;;;;;;5059032;28;20052;-66
2021/05/14 04:59:39;;;;;;;9.77;7.03;;;9.20;99.90;;;;;;5057598;28;20032;-66
2021/05/14 05:02:06;;;;;;;11.20;5.90;;;9.20;99.90;;;;;;5060145;28;20056;-66
2021/05/14 05:04:37;;;;;;;9.20;6.00;;;9.20;99.90;;;;;;5061440;28;20162;-66
2021/05/14 05:07:03;;;;;;;9.70;5.93;;;9.20;99.90;;;;;;5057910;28;20055;-66
2021/05/14 05:09:30;;;;;;;13.75;6.57;;;9.20;99.90;;;;;;5061221;28;20502;-66
2021/05/14 05:11:56;;;;;;;9.63;6.38;;;9.20;99.90;;;;;;5057953;28;20529;-66
2021/05/14 05:14:22;;;;;;;9.70;6.00;;;9.20;99.90;;;;;;5056285;28;20036;-66
2021/05/14 05:16:48;;;;;;;8.10;6.13;;;9.30;99.90;;;;;;5054804;28;20044;-66
2021/05/14 05:19:14;;;;;;;10.60;6.20;;;9.30;99.90;;;;;;5060713;28;20088;-66
2021/05/14 05:21:39;;;;;;;8.80;5.57;;;9.30;99.90;;;;;;5066028;28;20045;-66
2021/05/14 05:24:06;;;;;;;9.43;5.90;;;9.40;99.90;;;;;;5056888;28;20463;-66
2021/05/14 05:26:31;;;;;;;9.30;5.55;;;9.40;99.90;;;;;;5055008;28;20040;-66
2021/05/14 05:28:57;;;;;;;11.77;5.68;;;9.50;99.90;;;;;;5057466;28;20072;-66
2021/05/14 05:31:23;;;;;;;10.32;6.10;;;9.50;99.90;;;;;;5062445;28;20032;-66
2021/05/14 05:33:49;;;;;;;25.52;11.75;;;9.60;99.90;;;;;;5062047;28;20036;-66
2021/05/14 05:36:14;;;;;;;87.70;56.38;;;9.60;99.90;;;;;;5059148;28;20041;-66
2021/05/14 05:38:40;;;;;;;23.33;16.13;;;9.60;99.90;;;;;;5058547;28;20039;-66
2021/05/14 05:41:06;;;;;;;38.72;24.92;;;9.70;99.90;;;;;;5053166;28;20041;-66
2021/05/14 05:43:31;;;;;;;31.58;20.52;;;9.70;99.90;;;;;;5055030;28;20040;-66
2021/05/14 05:45:57;;;;;;;14.38;7.00;;;9.70;99.90;;;;;;5054035;28;20407;-66
2021/05/14 05:48:23;;;;;;;17.58;13.82;;;9.80;99.90;;;;;;5055653;28;20044;-66
2021/05/14 05:50:50;;;;;;;10.73;6.60;;;9.80;99.90;;;;;;5055406;28;20040;-66
2021/05/14 05:53:16;;;;;;;19.23;11.60;;;9.90;99.90;;;;;;5060982;28;20376;-66
2021/05/14 05:55:41;;;;;;;38.80;22.67;;;9.90;99.90;;;;;;5059266;28;20048;-66
2021/05/14 05:58:09;;;;;;;18.48;11.50;;;9.90;99.90;;;;;;5057558;28;20036;-66
2021/05/14 06:00:35;;;;;;;17.00;10.43;;;9.90;99.80;;;;;;5059306;28;20050;-66
2021/05/14 06:03:02;;;;;;;22.98;14.35;;;9.90;99.80;;;;;;5059895;28;20122;-65
2021/05/14 06:05:28;;;;;;;69.40;37.75;;;9.90;99.70;;;;;;5059620;28;20083;-66
2021/05/14 06:07:54;;;;;;;64.18;36.95;;;9.90;99.80;;;;;;5064002;28;20044;-66
2021/05/14 06:10:20;;;;;;;88.20;48.17;;;10.00;99.90;;;;;;5061847;28;20419;-66
2021/05/14 06:12:46;;;;;;;30.00;16.10;;;10.00;99.90;;;;;;5058647;28;20040;-66
2021/05/14 06:15:12;;;;;;;31.38;16.70;;;10.10;99.90;;;;;;5058509;28;20033;-66
2021/05/14 06:17:42;;;;;;;223.80;136.50;;;10.10;99.90;;;;;;5055749;28;20036;-66
2021/05/14 06:20:10;;;;;;;56.42;31.15;;;10.20;99.70;;;;;;5052155;28;20182;-66
2021/05/14 06:22:37;;;;;;;205.90;119.00;;;10.30;99.60;;;;;;5054207;28;20095;-66
2021/05/14 06:25:04;;;;;;;21.02;11.70;;;10.30;99.60;;;;;;5055414;28;20033;-66
2021/05/14 06:27:30;;;;;;;12.98;8.25;;;10.30;99.60;;;;;;5055833;28;20053;-66
2021/05/14 06:29:56;;;;;;;224.43;124.00;;;10.30;99.50;;;;;;5052261;28;20048;-66
2021/05/14 06:32:22;;;;;;;23.05;16.00;;;10.40;99.70;;;;;;5051220;28;20490;-66
2021/05/14 06:34:48;;;;;;;96.68;62.92;;;10.40;99.40;;;;;;5055911;28;20996;-66
2021/05/14 06:37:14;;;;;;;22.40;10.60;;;10.40;99.30;;;;;;5055711;28;20036;-66
2021/05/14 06:39:42;;;;;;;247.27;146.50;;;10.40;99.60;;;;;;5055209;28;20132;-66
2021/05/14 06:42:07;;;;;;;22.30;13.20;;;10.40;99.50;;;;;;5055154;28;20096;-66
2021/05/14 06:44:34;;;;;;;1061.47;663.30;;;10.40;99.60;;;;;;5055250;28;20119;-66
2021/05/14 06:46:59;;;;;;;39.63;26.05;;;10.40;99.50;;;;;;5053350;28;20056;-66
2021/05/14 06:49:26;;;;;;;10.93;6.40;;;10.40;99.50;;;;;;5055988;28;20102;-66
2021/05/14 06:51:51;;;;;;;12.95;5.78;;;10.40;99.40;;;;;;5055695;28;20044;-66
2021/05/14 06:54:17;;;;;;;9.52;4.28;;;10.40;99.50;;;;;;5054025;28;20033;-66
2021/05/14 06:56:43;;;;;;;7.80;3.97;;;10.40;99.40;;;;;;5053758;28;20807;-66
2021/05/14 06:59:12;;;;;;;15.52;5.40;;;10.40;99.50;;;;;;5056666;28;20159;-66
2021/05/14 07:01:37;;;;;;;14.45;5.28;;;10.50;99.60;;;;;;5056970;28;20398;-66
2021/05/14 07:04:03;;;;;;;7.35;4.15;;;10.60;99.50;;;;;;5067247;28;20028;-66
2021/05/14 07:06:29;;;;;;;4.78;3.72;;;10.60;99.30;;;;;;5065345;28;20033;-66
2021/05/14 07:08:55;;;;;;;6.40;3.97;;;10.60;99.20;;;;;;5066696;28;20041;-66
2021/05/14 07:11:21;;;;;;;6.65;4.40;;;10.60;99.20;;;;;;5062712;28;20087;-66
2021/05/14 07:13:47;;;;;;;11.25;4.22;;;10.70;99.10;;;;;;5071084;28;20149;-66
2021/05/14 07:16:15;;;;;;;7.20;3.95;;;10.60;98.90;;;;;;5061927;28;20143;-66
2021/05/14 07:18:41;;;;;;;6.07;3.50;;;10.60;98.90;;;;;;5058022;28;20043;-66
2021/05/14 07:21:06;;;;;;;7.18;4.05;;;10.60;98.50;;;;;;5055517;28;20052;-66
2021/05/14 07:23:33;;;;;;;10.63;4.60;;;10.60;98.70;;;;;;5058975;28;20039;-66
2021/05/14 07:25:59;;;;;;;9.00;4.63;;;10.50;98.80;;;;;;5058095;28;20048;-66
2021/05/14 07:28:29;;;;;;;6.20;4.60;;;10.60;99.10;;;;;;5060514;28;20055;-66
2021/05/14 07:30:55;;;;;;;9.25;4.80;;;10.60;98.90;;;;;;5058390;28;20037;-66
2021/05/14 07:33:21;;;;;;;7.55;4.75;;;10.50;98.80;;;;;;5058555;28;20505;-66
2021/05/14 07:35:47;;;;;;;12.32;4.95;;;10.50;98.80;;;;;;5059607;28;20079;-66
2021/05/14 07:38:13;;;;;;;13.57;6.07;;;10.60;98.90;;;;;;5056988;28;20144;-66
2021/05/14 07:40:44;;;;;;;12.10;5.05;;;10.60;98.80;;;;;;5058560;28;20414;-66
2021/05/14 07:43:10;;;;;;;6.90;4.55;;;10.70;99.00;;;;;;5058335;28;20045;-66
2021/05/14 07:45:36;;;;;;;391.77;247.55;;;10.70;99.00;;;;;;5059488;28;20094;-66
2021/05/14 07:48:05;;;;;;;951.05;660.17;;;10.70;98.90;;;;;;5059221;28;20032;-66
2021/05/14 07:50:31;;;;;;;58.22;37.55;;;10.80;98.90;;;;;;5055110;28;20434;-66
2021/05/14 07:52:57;;;;;;;19.35;12.20;;;10.90;98.80;;;;;;5056849;28;20041;-66
2021/05/14 07:55:23;;;;;;;49.08;36.90;;;11.00;98.60;;;;;;5054185;28;20044;-66
2021/05/14 07:57:49;;;;;;;11.60;6.05;;;11.00;98.00;;;;;;5052990;28;20053;-66
2021/05/14 08:00:22;;;;;;;11.82;4.88;;;11.00;98.00;;;;;;5057073;28;20040;-66
2021/05/14 08:02:48;;;;;;;7.68;4.43;;;11.00;98.30;;;;;;5059198;28;20075;-66
2021/05/14 08:05:15;;;;;;;9.95;4.75;;;11.10;98.30;;;;;;5055089;28;20056;-66
2021/05/14 08:07:40;;;;;;;11.82;4.72;;;11.00;98.30;;;;;;5057755;28;20039;-66
2021/05/14 08:10:07;;;;;;;11.10;4.72;;;11.10;98.10;;;;;;5053853;28;20040;-66
2021/05/14 08:12:34;;;;;;;15.18;5.40;;;11.00;98.20;;;;;;5054153;28;20041;-66
2021/05/14 08:15:02;;;;;;;27.15;17.83;;;11.10;98.40;;;;;;5056758;28;20041;-66
2021/05/14 08:17:28;;;;;;;15.30;7.28;;;11.10;98.70;;;;;;5055922;28;20067;-66
2021/05/14 08:19:53;;;;;;;12.55;5.65;;;11.10;98.80;;;;;;5054862;28;20044;-66
2021/05/14 08:22:19;;;;;;;9.77;4.30;;;11.20;98.70;;;;;;5058200;28;20029;-66
2021/05/14 08:24:45;;;;;;;7.63;4.38;;;11.10;98.30;;;;;;5057840;28;20040;-66
2021/05/14 08:27:13;;;;;;;8.50;4.78;;;11.10;98.20;;;;;;5054272;28;20047;-66
2021/05/14 08:29:39;;;;;;;13.48;5.55;;;11.10;98.20;;;;;;5053160;28;20048;-66
2021/05/14 08:32:05;;;;;;;12.13;5.57;;;11.10;98.30;;;;;;5056071;28;20375;-66
2021/05/14 08:34:30;;;;;;;11.00;6.13;;;11.10;98.30;;;;;;5056387;28;20043;-66
2021/05/14 08:36:56;;;;;;;12.10;5.97;;;11.30;98.20;;;;;;5065282;28;20050;-67
2021/05/14 08:39:22;;;;;;;11.13;4.40;;;11.30;98.20;;;;;;5056530;28;20025;-66
2021/05/14 08:41:48;;;;;;;11.30;5.53;;;11.30;98.00;;;;;;5058818;28;20044;-66
2021/05/14 08:44:14;;;;;;;9.73;4.30;;;11.40;97.70;;;;;;5056382;28;20106;-66
2021/05/14 08:46:40;;;;;;;12.82;5.10;;;11.50;97.70;;;;;;5056776;28;20123;-66
2021/05/14 08:49:09;;;;;;;8.82;4.68;;;11.50;97.60;;;;;;5058522;28;20054;-66
2021/05/14 08:51:37;;;;;;;11.68;6.20;;;11.50;97.50;;;;;;5057204;28;20502;-66
2021/05/14 08:54:07;;;;;;;10.38;5.03;;;11.60;97.60;;;;;;5061997;28;20048;-66
2021/05/14 08:56:38;;;;;;;7.43;4.63;;;11.60;97.40;;;;;;5059583;28;20103;-66
2021/05/14 08:59:04;;;;;;;11.93;5.38;;;11.60;97.30;;;;;;5059349;28;20033;-66
2021/05/14 09:01:30;;;;;;;8.73;5.00;;;11.60;97.10;;;;;;5058856;28;20115;-66
2021/05/14 09:04:01;;;;;;;7.30;4.82;;;11.70;96.80;;;;;;5056401;28;20086;-67
2021/05/14 09:06:31;;;;;;;12.98;6.30;;;11.70;96.70;;;;;;5057805;28;20649;-66
2021/05/14 09:08:59;;;;;;;16.05;7.03;;;11.70;96.90;;;;;;5058780;28;20043;-66
2021/05/14 09:11:53;;;;;;;13.60;5.65;;;11.70;97.10;;;;;;5059685;28;20052;-66
2021/05/14 09:14:41;;;;;;;10.73;5.82;;;11.70;97.10;;;;;;5056810;28;20499;-66
2021/05/14 09:17:23;;;;;;;19.00;6.85;;;11.70;97.00;;;;;;5056626;28;20039;-66
2021/05/14 09:19:55;;;;;;;16.85;7.15;;;11.70;96.80;;;;;;5058013;28;20505;-67
2021/05/14 09:22:23;;;;;;;16.77;6.90;;;11.80;96.60;;;;;;5056513;28;20040;-66
2021/05/14 09:24:56;;;;;;;15.25;6.70;;;11.80;97.00;;;;;;5057907;28;20037;-66
2021/05/14 09:27:31;;;;;;;12.68;6.43;;;11.70;96.90;;;;;;5057973;28;20041;-66
2021/05/14 09:29:58;;;;;;;12.18;6.20;;;11.70;96.80;;;;;;5056508;28;20040;-66
2021/05/14 09:32:29;;;;;;;14.25;6.15;;;11.70;97.00;;;;;;5055599;28;20037;-67
2021/05/14 09:35:03;;;;;;;16.83;7.47;;;11.80;97.30;;;;;;5057674;28;20037;-66
2021/05/14 09:37:29;;;;;;;12.68;6.60;;;11.80;97.50;;;;;;5058097;28;20054;-66
2021/05/14 09:40:14;;;;;;;16.45;7.00;;;11.90;97.20;;;;;;5056524;28;20119;-66
2021/05/14 09:42:40;;;;;;;14.40;6.93;;;11.90;97.40;;;;;;5060714;28;20053;-66
2021/05/14 09:45:20;;;;;;;12.07;6.70;;;12.00;97.40;;;;;;5057446;28;20049;-66
2021/05/14 09:47:59;;;;;;;16.95;7.93;;;12.00;97.10;;;;;;5058404;28;20040;-66
2021/05/14 09:50:29;;;;;;;13.95;7.35;;;12.00;97.00;;;;;;5054331;28;20075;-66
2021/05/14 09:53:20;;;;;;;16.13;7.75;;;12.10;96.80;;;;;;5058164;28;20032;-67
2021/05/14 09:56:02;;;;;;;12.95;7.30;;;12.20;96.80;;;;;;5054612;28;20056;-66
2021/05/14 09:58:30;;;;;;;13.52;7.30;;;12.20;96.90;;;;;;5058422;28;20041;-66
2021/05/14 10:00:56;;;;;;;13.90;7.10;;;12.20;96.50;;;;;;5059338;28;20394;-66
2021/05/14 10:03:25;;;;;;;14.93;7.53;;;12.30;96.10;;;;;;5056603;28;20174;-66
2021/05/14 10:05:55;;;;;;;13.63;6.95;;;12.30;96.40;;;;;;5057885;28;20064;-66
2021/05/14 10:08:25;;;;;;;16.00;7.70;;;12.30;96.30;;;;;;5060358;28;20035;-66
2021/05/14 10:11:08;;;;;;;14.20;7.47;;;12.40;96.00;;;;;;5055591;28;20044;-66
2021/05/14 10:13:36;;;;;;;13.02;7.50;;;12.40;96.00;;;;;;5057133;28;20550;-66
2021/05/14 10:16:06;;;;;;;10.68;6.93;;;12.40;96.00;;;;;;5054763;28;20049;-66
2021/05/14 10:18:41;;;;;;;12.65;6.40;;;12.40;95.90;;;;;;5057537;28;20048;-66
2021/05/14 10:21:08;;;;;;;11.57;7.40;;;12.50;96.10;;;;;;5059486;28;20041;-67
2021/05/14 10:23:44;;;;;;;9.23;6.38;;;12.50;95.70;;;;;;5055102;28;20119;-66
2021/05/14 10:26:11;;;;;;;10.65;6.45;;;12.60;95.20;;;;;;5056093;28;20047;-66
2021/05/14 10:28:39;;;;;;;11.65;7.07;;;12.60;95.30;;;;;;5059476;28;20045;-66
2021/05/14 10:31:05;;;;;;;9.80;7.63;;;12.70;95.00;;;;;;5055569;28;22850;-66
2021/05/14 10:33:38;;;;;;;16.38;8.95;;;12.80;95.10;;;;;;5058494;28;20040;-67
2021/05/14 10:36:21;;;;;;;18.10;8.85;;;12.80;95.40;;;;;;5057164;28;20047;-66
2021/05/14 10:39:17;;;;;;;14.05;8.18;;;12.90;95.50;;;;;;5061713;28;20045;-66
2021/05/14 10:41:52;;;;;;;14.27;8.40;;;12.90;95.50;;;;;;5061842;28;20032;-67
2021/05/14 10:44:58;;;;;;;12.98;8.85;;;13.00;95.10;;;;;;5061835;28;21020;-66
2021/05/14 10:47:24;;;;;;;14.80;7.80;;;13.00;94.20;;;;;;5058043;28;20045;-66
2021/05/14 10:49:54;;;;;;;14.00;9.40;;;13.00;94.50;;;;;;5058680;28;20106;-67
2021/05/14 10:52:21;;;;;;;16.08;8.63;;;13.10;94.00;;;;;;5058686;28;20037;-67
2021/05/14 10:54:51;;;;;;;13.85;8.30;;;13.00;94.30;;;;;;5060534;28;20098;-66
2021/05/14 10:57:38;;;;;;;14.05;7.75;;;13.10;94.40;;;;;;5059352;28;20073;-66
2021/05/14 11:00:29;;;;;;;12.65;8.30;;;13.20;93.90;;;;;;5063427;28;20040;-66
2021/05/14 11:03:10;;;;;;;17.65;8.48;;;13.30;94.20;;;;;;5062243;28;20499;-67
2021/05/14 11:05:43;;;;;;;14.85;9.45;;;13.40;94.20;;;;;;5062195;28;20048;-67
2021/05/14 11:08:11;;;;;;;14.00;8.63;;;13.50;94.40;;;;;;5060667;28;20083;-66
2021/05/14 11:10:37;;;;;;;16.30;8.05;;;13.70;94.40;;;;;;5058270;28;20040;-67
2021/05/14 11:13:35;;;;;;;19.70;8.20;;;13.80;94.40;;;;;;5061353;28;20044;-67
2021/05/14 11:16:32;;;;;;;16.58;8.57;;;14.00;94.20;;;;;;5062447;28;20512;-67
2021/05/14 11:19:09;;;;;;;11.63;7.43;;;14.10;94.20;;;;;;5061039;28;20044;-67
2021/05/14 11:22:08;;;;;;;12.98;7.70;;;14.20;93.60;;;;;;5061786;28;20051;-67
2021/05/14 11:24:54;;;;;;;16.98;9.18;;;14.40;93.70;;;;;;5065141;28;20095;-67
2021/05/14 11:27:28;;;;;;;11.73;7.32;;;14.50;93.60;;;;;;5061225;28;20785;-67
2021/05/14 11:30:04;;;;;;;10.07;6.93;;;14.60;93.30;;;;;;5059818;28;20115;-67
2021/05/14 11:32:33;;;;;;;12.48;6.28;;;14.60;91.90;;;;;;5061598;28;20054;-67
2021/05/14 11:35:00;;;;;;;11.55;6.22;;;14.60;91.90;;;;;;5059005;28;20575;-67
2021/05/14 11:37:31;;;;;;;16.92;7.30;;;14.70;90.40;;;;;;5060632;28;20048;-67
2021/05/14 11:40:04;;;;;;;9.25;5.15;;;14.80;91.70;;;;;;5061339;28;20028;-67
2021/05/14 11:42:30;;;;;;;12.77;5.50;;;14.90;90.80;;;;;;5060246;28;20063;-67
2021/05/14 11:44:58;;;;;;;17.48;5.72;;;15.00;90.50;;;;;;5059320;28;20067;-67
2021/05/14 11:47:25;;;;;;;16.50;7.68;;;15.00;90.40;;;;;;5059053;28;20047;-67
2021/05/14 11:49:51;;;;;;;10.30;5.55;;;15.00;90.00;;;;;;5059628;28;20041;-67
2021/05/14 11:52:38;;;;;;;8.45;5.55;;;15.10;90.70;;;;;;5060129;28;20043;-67
2021/05/14 11:55:05;;;;;;;10.07;5.05;;;15.20;91.40;;;;;;5055869;28;20036;-67
2021/05/14 11:57:31;;;;;;;106.35;71.72;;;15.30;91.30;;;;;;5087419;27;21131;-67
2021/05/14 11:59:58;;;;;;;13.30;5.65;;;15.30;91.20;;;;;;5062594;28;20036;-67
2021/05/14 12:02:41;;;;;;;452.52;358.17;;;15.20;90.40;;;;;;5059510;28;20044;-67
2021/05/14 12:05:09;;;;;;;388.92;291.05;;;15.20;90.60;;;;;;5058944;28;20956;-67
2021/05/14 12:07:35;;;;;;;656.33;506.75;;;15.20;91.00;;;;;;5060783;28;20163;-67
2021/05/14 12:10:05;;;;;;;848.80;671.05;;;15.20;91.40;;;;;;5059576;28;20436;-66
2021/05/14 12:12:31;;;;;;;447.83;343.35;;;15.20;92.10;;;;;;5055098;28;20036;-67
2021/05/14 12:15:22;;;;;;;103.90;77.32;;;15.20;91.70;;;;;;5061574;28;20117;-66
2021/05/14 12:17:50;;;;;;;11.38;4.85;;;15.20;91.30;;;;;;5055651;28;20048;-67
2021/05/14 12:20:24;;;;;;;8.10;4.85;;;15.10;91.30;;;;;;5055526;28;20040;-66
2021/05/14 12:22:51;;;;;;;14.82;5.10;;;15.10;91.20;;;;;;5055673;28;20064;-67
2021/05/14 12:25:17;;;;;;;12.63;5.80;;;15.00;91.10;;;;;;5061414;28;20036;-66
2021/05/14 12:27:43;;;;;;;13.90;4.80;;;15.00;91.30;;;;;;5056599;28;20632;-67
2021/05/14 12:30:10;;;;;;;8.88;4.20;;;15.00;91.60;;;;;;5057437;28;20044;-67
2021/05/14 12:32:39;;;;;;;12.05;4.65;;;15.00;91.60;;;;;;5059037;28;20137;-67
2021/05/14 12:35:07;;;;;;;13.95;4.60;;;14.90;90.40;;;;;;5056534;28;20032;-67
2021/05/14 12:37:34;;;;;;;11.95;4.50;;;14.80;90.60;;;;;;5054651;28;21504;-67
2021/05/14 12:40:00;;;;;;;6.90;3.05;;;14.80;91.30;;;;;;5063576;28;20535;-67
2021/05/14 12:42:31;;;;;;;21.25;9.82;;;14.90;91.00;;;;;;5066816;28;20032;-67
2021/05/14 12:44:59;;;;;;;16.80;7.00;;;14.90;91.10;;;;;;5068655;28;20033;-67
2021/05/14 12:47:29;;;;;;;112.30;86.78;;;15.00;91.60;;;;;;5062351;28;20036;-67
2021/05/14 12:49:56;;;;;;;17.65;8.73;;;15.00;91.60;;;;;;5060343;28;20052;-67
2021/05/14 12:52:36;;;;;;;10.07;3.58;;;15.10;91.50;;;;;;5058838;28;20072;-67